createdAt,value
2023-05-06T00:00:14.527Z,101206.44
2023-05-06T00:02:42.115Z,101209.97
2023-05-06T00:05:09.207Z,101209.63
2023-05-06T00:07:36.293Z,101204.41
2023-05-06T00:10:04.802Z,101214.34
2023-05-06T00:12:31.701Z,101216.13
2023-05-06T00:15:05.959Z,101199.25
2023-05-06T00:17:32.780Z,101203.06
2023-05-06T00:19:59.607Z,101211.75
2023-05-06T00:22:44.291Z,101195.72
2023-05-06T00:25:18.653Z,101188.56
2023-05-06T00:27:45.562Z,101181.91
2023-05-06T00:30:23.468Z,101171.75
2023-05-06T00:32:50.290Z,101156.75
2023-05-06T00:35:16.909Z,101154.66
2023-05-06T00:38:00.794Z,101142.84
2023-05-06T00:40:27.625Z,101144.94
2023-05-06T00:43:02.876Z,101131.72
2023-05-06T00:45:30.066Z,101139.66
2023-05-06T00:47:58.050Z,101137.63
2023-05-06T00:50:28.326Z,101133.91
2023-05-06T00:52:57.019Z,101143.53
2023-05-06T00:55:36.739Z,101141.97
2023-05-06T00:58:04.447Z,101143.00
2023-05-06T01:00:42.814Z,101132.22
2023-05-06T01:03:12.134Z,101136.94
2023-05-06T01:06:19.081Z,101130.84
2023-05-06T01:09:06.559Z,101132.31
2023-05-06T01:12:14.661Z,101131.22
2023-05-06T01:15:01.093Z,101129.63
2023-05-06T01:20:22.688Z,101116.88
2023-05-06T01:23:03.657Z,101115.09
2023-05-06T01:25:32.272Z,101127.50
2023-05-06T01:28:10.827Z,101122.94
2023-05-06T01:31:29.826Z,101119.50
2023-05-06T01:37:31.953Z,101128.00
2023-05-06T01:40:00.329Z,101120.75
2023-05-06T01:42:37.747Z,101127.06
2023-05-06T01:45:16.857Z,101131.19
2023-05-06T01:47:46.460Z,101141.81
2023-05-06T01:50:16.052Z,101132.22
2023-05-06T01:55:45.347Z,101127.84
2023-05-06T01:58:26.017Z,101132.63
2023-05-06T02:01:04.862Z,101123.22
2023-05-06T02:03:39.990Z,101120.84
2023-05-06T02:08:50.456Z,101115.53
2023-05-06T02:11:17.147Z,101119.72
2023-05-06T02:13:50.333Z,101125.44
2023-05-06T02:16:17.155Z,101127.84
2023-05-06T02:18:44.478Z,101122.53
2023-05-06T02:21:32.975Z,101128.06
2023-05-06T02:24:01.938Z,101127.75
2023-05-06T02:26:35.473Z,101132.22
2023-05-06T02:29:02.159Z,101121.41
2023-05-06T02:31:29.286Z,101128.16
2023-05-06T02:34:24.083Z,101134.41
2023-05-06T02:37:01.200Z,101135.31
2023-05-06T02:39:28.187Z,101134.56
2023-05-06T02:42:38.605Z,101128.91
2023-05-06T02:45:09.187Z,101127.28
2023-05-06T02:50:38.660Z,101122.75
2023-05-06T02:53:14.882Z,101121.66
2023-05-06T02:56:09.851Z,101130.66
2023-05-06T02:58:47.834Z,101133.91
2023-05-06T03:01:17.536Z,101111.63
2023-05-06T03:04:00.118Z,101121.38
2023-05-06T03:06:26.857Z,101119.38
2023-05-06T03:08:56.312Z,101131.31
2023-05-06T03:11:26.501Z,101136.28
2023-05-06T03:13:55.702Z,101124.91
2023-05-06T03:16:23.183Z,101116.91
2023-05-06T03:19:04.296Z,101126.53
2023-05-06T03:21:37.252Z,101111.34
2023-05-06T03:24:17.263Z,101115.72
2023-05-06T03:26:52.360Z,101117.06
2023-05-06T03:29:27.341Z,101110.34
2023-05-06T03:32:22.780Z,101103.06
2023-05-06T03:34:50.325Z,101105.03
2023-05-06T03:37:22.289Z,101111.22
2023-05-06T03:39:51.283Z,101098.53
2023-05-06T03:42:17.973Z,101098.84
2023-05-06T03:45:03.854Z,101102.44
2023-05-06T03:50:40.927Z,101095.78
2023-05-06T03:53:12.681Z,101094.06
2023-05-06T03:55:39.364Z,101082.28
2023-05-06T03:58:06.244Z,101087.41
2023-05-06T04:00:32.906Z,101087.06
2023-05-06T04:02:59.580Z,101084.13
2023-05-06T04:05:26.334Z,101085.75
2023-05-06T04:07:53.167Z,101083.78
2023-05-06T04:10:20.195Z,101097.03
2023-05-06T04:12:47.437Z,101103.00
2023-05-06T04:15:14.136Z,101101.78
2023-05-06T04:17:41.098Z,101107.91
2023-05-06T04:20:11.483Z,101102.03
2023-05-06T04:22:38.903Z,101103.78
2023-05-06T04:25:06.817Z,101102.25
2023-05-06T04:27:33.608Z,101108.03
2023-05-06T04:30:00.640Z,101116.47
2023-05-06T04:32:27.332Z,101114.53
2023-05-06T04:34:54.319Z,101111.41
2023-05-06T04:37:21.208Z,101117.84
2023-05-06T04:39:49.017Z,101122.38
2023-05-06T04:42:16.866Z,101123.53
2023-05-06T04:44:43.945Z,101125.06
2023-05-06T04:47:10.779Z,101131.34
2023-05-06T04:49:37.407Z,101130.97
2023-05-06T04:52:04.682Z,101135.50
2023-05-06T04:54:31.415Z,101138.19
2023-05-06T04:56:58.298Z,101138.31
2023-05-06T04:59:25.762Z,101149.91
2023-05-06T05:01:52.769Z,101139.63
2023-05-06T05:04:19.684Z,101137.63
2023-05-06T05:06:46.507Z,101142.16
2023-05-06T05:09:13.951Z,101145.72
2023-05-06T05:11:41.036Z,101151.97
2023-05-06T05:14:07.749Z,101145.72
2023-05-06T05:16:34.632Z,101137.13
2023-05-06T05:19:03.510Z,101142.16
2023-05-06T05:21:30.846Z,101144.47
2023-05-06T05:23:57.745Z,101146.16
2023-05-06T05:26:24.702Z,101149.75
2023-05-06T05:28:51.629Z,101152.84
2023-05-06T05:31:18.515Z,101151.38
2023-05-06T05:33:45.535Z,101150.84
2023-05-06T05:36:15.401Z,101149.84
2023-05-06T05:38:42.129Z,101148.13
2023-05-06T05:41:08.934Z,101148.38
2023-05-06T05:43:35.730Z,101149.75
2023-05-06T05:46:02.409Z,101148.59
2023-05-06T05:48:29.261Z,101152.91
2023-05-06T05:50:56.108Z,101151.97
2023-05-06T05:53:22.734Z,101151.84
2023-05-06T05:55:49.328Z,101160.97
2023-05-06T05:58:16.008Z,101153.47
2023-05-06T06:00:42.661Z,101155.97
2023-05-06T06:03:09.387Z,101164.88
2023-05-06T06:05:36.027Z,101162.81
2023-05-06T06:08:15.447Z,101162.88
2023-05-06T06:10:52.220Z,101163.78
2023-05-06T06:13:18.978Z,101168.19
2023-05-06T06:15:46.608Z,101165.34
2023-05-06T06:18:13.410Z,101170.19
2023-05-06T06:20:40.122Z,101176.69
2023-05-06T06:23:06.795Z,101179.69
2023-05-06T06:25:33.369Z,101175.03
2023-05-06T06:28:00.102Z,101179.06
2023-05-06T06:30:27.016Z,101175.16
2023-05-06T06:32:55.888Z,101181.47
2023-05-06T06:35:23.717Z,101182.06
2023-05-06T06:37:50.751Z,101180.25
2023-05-06T06:40:17.479Z,101181.00
2023-05-06T06:42:44.169Z,101181.38
2023-05-06T06:45:11.553Z,101177.56
2023-05-06T06:47:38.525Z,101176.00
2023-05-06T06:50:05.821Z,101167.03
2023-05-06T06:52:32.595Z,101170.78
2023-05-06T06:54:59.217Z,101174.63
2023-05-06T06:57:26.460Z,101183.63
2023-05-06T06:59:53.861Z,101186.63
2023-05-06T07:02:21.580Z,101183.00
2023-05-06T07:04:48.356Z,101190.81
2023-05-06T07:07:15.021Z,101191.91
2023-05-06T07:09:41.677Z,101201.38
2023-05-06T07:12:08.284Z,101206.94
2023-05-06T07:14:34.982Z,101191.06
2023-05-06T07:17:01.644Z,101194.81
2023-05-06T07:19:29.197Z,101194.44
2023-05-06T07:21:56.883Z,101200.72
2023-05-06T07:24:23.721Z,101203.63
2023-05-06T07:26:50.391Z,101198.75
2023-05-06T07:29:17.290Z,101199.03
2023-05-06T07:31:43.919Z,101202.06
2023-05-06T07:34:11.043Z,101195.06
2023-05-06T07:36:40.827Z,101197.56
2023-05-06T07:39:07.892Z,101204.88
2023-05-06T07:41:34.667Z,101199.50
2023-05-06T07:44:02.084Z,101214.75
2023-05-06T07:46:29.017Z,101215.81
2023-05-06T07:48:55.701Z,101209.94
2023-05-06T07:51:22.353Z,101222.38
2023-05-06T07:53:48.954Z,101220.56
2023-05-06T07:56:15.596Z,101222.38
2023-05-06T07:58:42.203Z,101229.19
2023-05-06T08:01:08.810Z,101231.97
2023-05-06T08:03:36.094Z,101231.97
2023-05-06T08:06:02.901Z,101231.81
2023-05-06T08:08:29.540Z,101226.84
2023-05-06T08:10:57.875Z,101237.56
2023-05-06T08:13:25.837Z,101236.94
2023-05-06T08:15:53.097Z,101240.31
2023-05-06T08:18:23.022Z,101236.25
2023-05-06T08:20:50.074Z,101239.28
2023-05-06T08:23:16.831Z,101241.22
2023-05-06T08:25:43.500Z,101247.44
2023-05-06T08:28:10.106Z,101241.41
2023-05-06T08:30:36.923Z,101248.59
2023-05-06T08:33:03.764Z,101250.50
2023-05-06T08:35:30.711Z,101244.28
2023-05-06T08:37:57.339Z,101251.66
2023-05-06T08:40:27.002Z,101254.56
2023-05-06T08:42:56.136Z,101259.56
2023-05-06T08:45:23.437Z,101258.09
2023-05-06T08:47:50.214Z,101263.63
2023-05-06T08:50:16.924Z,101271.41
2023-05-06T08:52:43.979Z,101271.94
2023-05-06T08:55:11.601Z,101272.91
2023-05-06T08:57:38.585Z,101271.00
2023-05-06T09:00:05.870Z,101277.38
2023-05-06T09:02:32.569Z,101271.94
2023-05-06T09:05:00.159Z,101279.53
2023-05-06T09:07:26.855Z,101292.59
2023-05-06T09:09:53.556Z,101291.88
2023-05-06T09:12:20.152Z,101289.81
2023-05-06T09:14:50.132Z,101287.56
2023-05-06T09:17:26.682Z,101291.34
2023-05-06T09:19:56.907Z,101289.59
2023-05-06T09:22:26.195Z,101285.63
2023-05-06T09:24:57.115Z,101293.88
2023-05-06T09:27:26.973Z,101293.13
2023-05-06T09:30:20.143Z,101285.44
2023-05-06T09:32:49.854Z,101297.13
2023-05-06T09:35:16.492Z,101283.16
2023-05-06T09:37:43.073Z,101283.50
2023-05-06T09:40:09.935Z,101285.97
2023-05-06T09:42:37.859Z,101280.34
2023-05-06T09:45:05.301Z,101279.63
2023-05-06T09:47:35.649Z,101292.00
2023-05-06T09:50:03.562Z,101288.63
2023-05-06T09:52:31.222Z,101286.59
2023-05-06T09:54:59.409Z,101295.44
2023-05-06T09:57:26.348Z,101307.53
2023-05-06T09:59:54.423Z,101300.91
2023-05-06T10:02:23.580Z,101298.50
2023-05-06T10:04:51.368Z,101299.75
2023-05-06T10:07:22.875Z,101301.47
2023-05-06T10:09:51.548Z,101307.09
2023-05-06T10:12:20.206Z,101308.72
2023-05-06T10:14:47.440Z,101311.66
2023-05-06T10:17:14.385Z,101325.47
2023-05-06T10:19:44.486Z,101314.81
2023-05-06T10:22:22.738Z,101311.03
2023-05-06T10:25:27.464Z,101316.28
2023-05-06T10:27:54.170Z,101316.56
2023-05-06T10:30:22.681Z,101314.72
2023-05-06T10:32:53.715Z,101312.22
2023-05-06T10:35:35.998Z,101307.72
2023-05-06T10:38:05.398Z,101310.47
2023-05-06T10:40:32.437Z,101308.81
2023-05-06T10:43:25.566Z,101312.19
2023-05-06T10:46:12.808Z,101314.69
2023-05-06T10:49:00.346Z,101305.84
2023-05-06T10:51:28.428Z,101302.97
2023-05-06T10:53:54.990Z,101308.81
2023-05-06T10:56:21.749Z,101311.34
2023-05-06T10:58:48.910Z,101306.22
2023-05-06T11:01:15.739Z,101303.94
2023-05-06T11:03:43.729Z,101313.50
2023-05-06T11:06:10.559Z,101318.03
2023-05-06T11:08:37.701Z,101325.88
2023-05-06T11:11:43.337Z,101316.72
2023-05-06T11:14:13.762Z,101315.31
2023-05-06T11:16:48.674Z,101326.06
2023-05-06T11:19:41.725Z,101332.47
2023-05-06T11:22:08.656Z,101331.25
2023-05-06T11:24:44.285Z,101331.19
2023-05-06T11:27:11.221Z,101337.00
2023-05-06T11:29:38.197Z,101325.94
2023-05-06T11:32:22.267Z,101328.22
2023-05-06T11:34:49.196Z,101336.84
2023-05-06T11:37:25.008Z,101336.94
2023-05-06T11:39:51.770Z,101338.78
2023-05-06T11:42:25.922Z,101345.06
2023-05-06T11:44:57.405Z,101346.75
2023-05-06T11:47:24.299Z,101347.81
2023-05-06T11:49:55.615Z,101345.31
2023-05-06T11:52:22.280Z,101355.38
2023-05-06T11:54:52.204Z,101359.38
2023-05-06T11:57:20.460Z,101364.44
2023-05-06T11:59:47.107Z,101368.56
2023-05-06T12:02:14.483Z,101376.44
2023-05-06T12:04:46.892Z,101371.06
2023-05-06T12:07:14.924Z,101375.47
2023-05-06T12:09:47.468Z,101383.47
2023-05-06T12:12:20.020Z,101385.91
2023-05-06T12:14:47.585Z,101395.53
2023-05-06T12:17:14.842Z,101407.38
2023-05-06T12:19:41.516Z,101398.78
2023-05-06T12:22:15.672Z,101406.09
2023-05-06T12:24:42.313Z,101401.38
2023-05-06T12:27:08.938Z,101405.53
2023-05-06T12:29:35.524Z,101418.69
2023-05-06T12:32:11.974Z,101413.00
2023-05-06T12:34:40.458Z,101412.78
2023-05-06T12:37:10.111Z,101425.97
2023-05-06T12:42:23.629Z,101410.91
2023-05-06T12:44:53.771Z,101421.69
2023-05-06T12:47:25.775Z,101436.28
2023-05-06T12:50:04.046Z,101422.75
2023-05-06T12:52:31.114Z,101430.16
2023-05-06T12:55:28.270Z,101424.75
2023-05-06T12:57:59.287Z,101416.75
2023-05-06T13:03:18.539Z,101421.59
2023-05-06T13:05:59.107Z,101438.56
2023-05-06T13:08:26.026Z,101444.81
2023-05-06T13:10:56.097Z,101428.66
2023-05-06T13:13:22.866Z,101436.91
2023-05-06T13:15:49.634Z,101429.44
2023-05-06T13:18:16.288Z,101436.84
2023-05-06T13:20:43.017Z,101440.22
2023-05-06T13:23:09.622Z,101440.44
2023-05-06T13:25:42.014Z,101441.81
2023-05-06T13:28:18.806Z,101435.06
2023-05-06T13:30:45.627Z,101431.28
2023-05-06T13:33:12.307Z,101430.53
2023-05-06T13:35:39.520Z,101437.59
2023-05-06T13:38:06.213Z,101449.56
2023-05-06T13:40:32.945Z,101437.72
2023-05-06T13:42:59.774Z,101447.31
2023-05-06T13:45:26.412Z,101440.47
2023-05-06T13:47:53.319Z,101447.09
2023-05-06T13:50:20.230Z,101440.72
2023-05-06T13:52:49.941Z,101441.94
2023-05-06T13:55:22.779Z,101435.88
2023-05-06T13:57:49.732Z,101448.66
2023-05-06T14:00:27.108Z,101454.59
2023-05-06T14:03:04.478Z,101454.66
2023-05-06T14:05:32.126Z,101453.91
2023-05-06T14:07:59.221Z,101449.38
2023-05-06T14:10:25.842Z,101454.41
2023-05-06T14:12:52.828Z,101447.97
2023-05-06T14:15:19.604Z,101448.50
2023-05-06T14:17:46.242Z,101449.72
2023-05-06T14:20:13.001Z,101441.53
2023-05-06T14:22:52.872Z,101438.50
2023-05-06T14:25:29.072Z,101433.28
2023-05-06T14:28:44.607Z,101447.88
2023-05-06T14:35:23.106Z,101424.25
2023-05-06T14:41:36.027Z,101430.91
2023-05-06T14:44:10.227Z,101439.44
2023-05-06T14:46:39.275Z,101426.31
2023-05-06T14:49:37.652Z,101448.06
2023-05-06T14:58:34.358Z,101462.81
2023-05-06T15:01:34.256Z,101458.63
2023-05-06T15:04:00.953Z,101458.31
2023-05-06T15:09:57.503Z,101465.59
2023-05-06T15:19:28.552Z,101479.34
2023-05-06T15:25:37.188Z,101468.03
2023-05-06T15:28:14.412Z,101467.50
2023-05-06T15:30:41.529Z,101472.25
2023-05-06T15:33:09.146Z,101460.19
2023-05-06T15:35:36.065Z,101468.09
2023-05-06T15:38:04.139Z,101465.66
2023-05-06T15:40:31.314Z,101476.66
2023-05-06T15:42:58.866Z,101481.91
2023-05-06T15:45:26.074Z,101480.13
2023-05-06T15:47:54.446Z,101477.94
2023-05-06T15:50:32.698Z,101487.16
2023-05-06T15:53:01.237Z,101487.34
2023-05-06T15:55:28.172Z,101482.88
2023-05-06T15:58:00.749Z,101486.94
2023-05-06T16:00:28.070Z,101480.94
2023-05-06T16:02:54.871Z,101480.88
2023-05-06T16:05:21.561Z,101476.13
2023-05-06T16:07:48.297Z,101483.84
2023-05-06T16:10:15.321Z,101489.81
2023-05-06T16:12:42.228Z,101489.81
2023-05-06T16:15:09.687Z,101489.44
2023-05-06T16:17:38.045Z,101500.78
2023-05-06T16:20:05.672Z,101502.91
2023-05-06T16:22:32.562Z,101495.22
2023-05-06T16:24:59.252Z,101492.84
2023-05-06T16:27:28.355Z,101502.66
2023-05-06T16:29:55.600Z,101492.56
2023-05-06T16:32:23.077Z,101504.81
2023-05-06T16:34:50.024Z,101510.16
2023-05-06T16:37:16.618Z,101504.44
2023-05-06T16:39:43.298Z,101499.75
2023-05-06T16:42:09.962Z,101492.47
2023-05-06T16:44:36.731Z,101495.00
2023-05-06T16:47:03.641Z,101494.22
2023-05-06T16:49:30.508Z,101501.31
2023-05-06T16:51:57.987Z,101492.84
2023-05-06T16:54:25.638Z,101503.94
2023-05-06T16:56:53.206Z,101509.34
2023-05-06T16:59:22.139Z,101509.09
2023-05-06T17:01:49.952Z,101506.81
2023-05-06T17:04:17.151Z,101504.56
2023-05-06T17:06:43.995Z,101500.56
2023-05-06T17:09:11.059Z,101516.06
2023-05-06T17:11:37.924Z,101517.19
2023-05-06T17:14:04.841Z,101516.81
2023-05-06T17:16:31.709Z,101519.53
2023-05-06T17:18:58.602Z,101521.09
2023-05-06T17:21:25.934Z,101527.19
2023-05-06T17:23:54.650Z,101526.38
2023-05-06T17:26:21.999Z,101520.59
2023-05-06T17:28:49.457Z,101528.53
2023-05-06T17:31:16.436Z,101517.78
2023-05-06T17:33:44.905Z,101527.06
2023-05-06T17:36:13.794Z,101519.13
2023-05-06T17:38:40.837Z,101530.59
2023-05-06T17:41:07.955Z,101523.44
2023-05-06T17:43:35.086Z,101518.06
2023-05-06T17:46:02.369Z,101513.56
2023-05-06T17:48:29.189Z,101515.59
2023-05-06T17:51:02.694Z,101523.13
2023-05-06T17:53:29.729Z,101513.25
2023-05-06T17:55:57.219Z,101523.28
2023-05-06T17:58:23.902Z,101520.91
2023-05-06T18:00:51.306Z,101523.53
2023-05-06T18:03:18.190Z,101529.09
2023-05-06T18:05:46.052Z,101536.66
2023-05-06T18:08:12.863Z,101535.28
2023-05-06T18:10:41.288Z,101540.25
2023-05-06T18:13:08.703Z,101542.28
2023-05-06T18:15:35.726Z,101549.09
2023-05-06T18:18:02.760Z,101551.06
2023-05-06T18:20:29.657Z,101537.72
2023-05-06T18:22:56.611Z,101547.50
2023-05-06T18:25:23.504Z,101556.91
2023-05-06T18:27:50.529Z,101555.47
2023-05-06T18:30:17.267Z,101555.47
2023-05-06T18:32:44.037Z,101550.53
2023-05-06T18:35:11.269Z,101561.03
2023-05-06T18:37:38.762Z,101560.91
2023-05-06T18:40:06.322Z,101564.50
2023-05-06T18:42:33.953Z,101567.44
2023-05-06T18:45:04.989Z,101570.88
2023-05-06T18:47:32.391Z,101566.31
2023-05-06T18:50:00.778Z,101570.09
2023-05-06T18:52:27.763Z,101579.31
2023-05-06T18:54:55.346Z,101572.91
2023-05-06T18:57:22.582Z,101566.19
2023-05-06T18:59:49.275Z,101561.63
2023-05-06T19:02:16.052Z,101575.38
2023-05-06T19:04:42.739Z,101578.06
2023-05-06T19:07:10.334Z,101580.19
2023-05-06T19:09:37.332Z,101587.38
2023-05-06T19:12:04.581Z,101588.44
2023-05-06T19:14:34.872Z,101581.38
2023-05-06T19:17:03.541Z,101587.50
2023-05-06T19:19:30.508Z,101585.91
2023-05-06T19:21:57.811Z,101597.19
2023-05-06T19:24:25.215Z,101604.22
2023-05-06T19:26:51.938Z,101584.66
2023-05-06T19:29:18.781Z,101584.88
2023-05-06T19:31:45.811Z,101588.91
2023-05-06T19:34:12.774Z,101585.38
2023-05-06T19:36:39.537Z,101593.84
2023-05-06T19:39:06.241Z,101584.81
2023-05-06T19:41:33.815Z,101596.69
2023-05-06T19:44:00.506Z,101583.69
2023-05-06T19:46:27.475Z,101594.91
2023-05-06T19:48:54.504Z,101593.44
2023-05-06T19:51:21.815Z,101591.88
2023-05-06T19:53:49.194Z,101586.66
2023-05-06T19:56:17.248Z,101595.50
2023-05-06T19:58:44.359Z,101578.84
2023-05-06T20:01:11.191Z,101579.91
2023-05-06T20:03:38.965Z,101584.13
2023-05-06T20:06:06.816Z,101594.63
2023-05-06T20:08:33.696Z,101597.53
2023-05-06T20:11:01.187Z,101593.59
2023-05-06T20:13:28.089Z,101593.38
2023-05-06T20:15:55.128Z,101603.16
2023-05-06T20:18:22.864Z,101604.50
2023-05-06T20:20:49.828Z,101608.88
2023-05-06T20:23:16.620Z,101595.97
2023-05-06T20:25:43.989Z,101603.41
2023-05-06T20:28:11.493Z,101602.88
2023-05-06T20:30:38.913Z,101605.22
2023-05-06T20:33:05.786Z,101605.53
2023-05-06T20:35:38.536Z,101604.09
2023-05-06T20:38:06.461Z,101605.34
2023-05-06T20:40:35.992Z,101602.69
2023-05-06T20:43:02.744Z,101613.00
2023-05-06T20:45:31.585Z,101599.81
2023-05-06T20:47:59.068Z,101612.41
2023-05-06T20:50:26.149Z,101617.03
2023-05-06T20:52:54.476Z,101617.31
2023-05-06T20:55:23.317Z,101602.69
2023-05-06T20:57:50.259Z,101616.19
2023-05-06T21:00:17.469Z,101612.81
2023-05-06T21:02:44.267Z,101619.00
2023-05-06T21:05:12.078Z,101617.88
2023-05-06T21:07:39.085Z,101624.16
2023-05-06T21:10:06.254Z,101615.59
2023-05-06T21:12:33.681Z,101621.66
2023-05-06T21:15:01.250Z,101621.72
2023-05-06T21:17:29.039Z,101616.31
2023-05-06T21:19:56.020Z,101620.53
2023-05-06T21:22:24.007Z,101623.91
2023-05-06T21:24:51.185Z,101624.22
2023-05-06T21:27:18.364Z,101613.84
2023-05-06T21:29:45.356Z,101624.69
2023-05-06T21:32:12.049Z,101627.66
2023-05-06T21:34:38.977Z,101623.16
2023-05-06T21:37:05.652Z,101619.59
2023-05-06T21:39:32.531Z,101619.59
2023-05-06T21:41:59.518Z,101615.78
2023-05-06T21:44:26.375Z,101607.72
2023-05-06T21:46:53.237Z,101616.66
2023-05-06T21:49:21.967Z,101623.38
2023-05-06T21:51:49.203Z,101623.16
2023-05-06T21:54:17.149Z,101620.63
2023-05-06T21:56:44.137Z,101628.06
2023-05-06T21:59:10.941Z,101624.28
2023-05-06T22:01:37.786Z,101627.28
2023-05-06T22:04:11.461Z,101635.25
2023-05-06T22:06:39.357Z,101625.22
2023-05-06T22:09:09.751Z,101626.31
2023-05-06T22:11:38.508Z,101629.38
2023-05-06T22:14:06.993Z,101635.06
2023-05-06T22:16:38.193Z,101637.38
2023-05-06T22:19:05.902Z,101628.94
2023-05-06T22:21:34.597Z,101640.16
2023-05-06T22:24:01.570Z,101639.22
2023-05-06T22:26:28.341Z,101629.38
2023-05-06T22:28:58.266Z,101640.47
2023-05-06T22:31:26.074Z,101641.69
2023-05-06T22:33:58.027Z,101636.31
2023-05-06T22:36:29.402Z,101639.88
2023-05-06T22:38:56.468Z,101640.91
2023-05-06T22:41:23.299Z,101642.59
2023-05-06T22:43:50.400Z,101644.25
2023-05-06T22:46:17.616Z,101635.72
2023-05-06T22:48:47.305Z,101641.53
2023-05-06T22:51:17.075Z,101640.00
2023-05-06T22:53:44.069Z,101641.78
2023-05-06T22:56:11.239Z,101642.47
2023-05-06T22:58:38.280Z,101644.38
2023-05-06T23:01:05.240Z,101650.06
2023-05-06T23:03:32.369Z,101648.63
2023-05-06T23:05:59.383Z,101646.03
2023-05-06T23:08:26.060Z,101650.00
2023-05-06T23:10:52.743Z,101651.97
2023-05-06T23:13:19.733Z,101650.31
2023-05-06T23:15:46.480Z,101652.13
2023-05-06T23:18:13.481Z,101647.63
2023-05-06T23:20:42.558Z,101649.41
2023-05-06T23:23:10.844Z,101644.13
2023-05-06T23:25:37.698Z,101643.25
2023-05-06T23:28:05.137Z,101634.16
2023-05-06T23:30:32.041Z,101632.09
2023-05-06T23:32:58.876Z,101644.13
2023-05-06T23:35:26.001Z,101648.41
2023-05-06T23:37:52.680Z,101639.09
2023-05-06T23:40:19.742Z,101642.28
2023-05-06T23:42:46.363Z,101640.72
2023-05-06T23:45:13.440Z,101651.34
2023-05-06T23:47:40.488Z,101655.22
2023-05-06T23:50:07.753Z,101654.63
2023-05-06T23:52:36.661Z,101649.34
2023-05-06T23:55:03.930Z,101652.69
2023-05-06T23:57:31.273Z,101645.09
2023-05-06T23:59:58.685Z,101647.41
